sensor_id;sensor_type;location;lat;lon;timestamp;P1;durP1;ratioP1;P2;durP2;ratioP2
74749;SDS011;63269;53.330;-6.288;2023-07-16T00:01:55;4.57;;;1.75;;
74749;SDS011;63269;53.330;-6.288;2023-07-16T00:04:21;4.95;;;1.80;;
74749;SDS011;63269;53.330;-6.288;2023-07-16T00:06:46;6.22;;;1.83;;
74749;SDS011;63269;53.330;-6.288;2023-07-16T00:09:12;4.35;;;1.80;;
74749;SDS011;63269;53.330;-6.288;2023-07-16T00:11:37;5.47;;;2.25;;
74749;SDS011;63269;53.330;-6.288;2023-07-16T00:14:03;4.10;;;1.70;;
74749;SDS011;63269;53.330;-6.288;2023-07-16T00:16:28;6.03;;;2.33;;
74749;SDS011;63269;53.330;-6.288;2023-07-16T00:18:54;5.55;;;2.63;;
74749;SDS011;63269;53.330;-6.288;2023-07-16T00:21:19;5.97;;;2.20;;
74749;SDS011;63269;53.330;-6.288;2023-07-16T00:23:45;5.82;;;2.08;;
74749;SDS011;63269;53.330;-6.288;2023-07-16T00:26:10;5.57;;;1.95;;
74749;SDS011;63269;53.330;-6.288;2023-07-16T00:28:35;5.65;;;1.75;;
74749;SDS011;63269;53.330;-6.288;2023-07-16T00:31:01;5.03;;;1.83;;
74749;SDS011;63269;53.330;-6.288;2023-07-16T00:33:26;5.57;;;2.40;;
74749;SDS011;63269;53.330;-6.288;2023-07-16T00:35:52;3.20;;;1.63;;
74749;SDS011;63269;53.330;-6.288;2023-07-16T00:38:17;5.80;;;2.00;;
74749;SDS011;63269;53.330;-6.288;2023-07-16T00:40:43;5.03;;;2.00;;
74749;SDS011;63269;53.330;-6.288;2023-07-16T00:43:09;5.15;;;2.00;;
74749;SDS011;63269;53.330;-6.288;2023-07-16T00:45:35;4.32;;;1.85;;
74749;SDS011;63269;53.330;-6.288;2023-07-16T00:48:01;8.23;;;2.78;;
74749;SDS011;63269;53.330;-6.288;2023-07-16T00:50:27;8.32;;;2.20;;
74749;SDS011;63269;53.330;-6.288;2023-07-16T00:52:52;5.53;;;2.17;;
74749;SDS011;63269;53.330;-6.288;2023-07-16T00:55:18;6.40;;;2.47;;
74749;SDS011;63269;53.330;-6.288;2023-07-16T00:57:44;6.18;;;2.35;;
74749;SDS011;63269;53.330;-6.288;2023-07-16T01:00:10;3.88;;;1.92;;
74749;SDS011;63269;53.330;-6.288;2023-07-16T01:02:36;5.53;;;2.05;;
74749;SDS011;63269;53.330;-6.288;2023-07-16T01:05:02;6.47;;;2.13;;
74749;SDS011;63269;53.330;-6.288;2023-07-16T01:07:28;4.95;;;2.25;;
74749;SDS011;63269;53.330;-6.288;2023-07-16T01:09:56;4.53;;;1.85;;
74749;SDS011;63269;53.330;-6.288;2023-07-16T01:12:22;4.53;;;1.92;;
74749;SDS011;63269;53.330;-6.288;2023-07-16T01:14:48;3.22;;;1.77;;
74749;SDS011;63269;53.330;-6.288;2023-07-16T01:17:15;5.60;;;2.08;;
74749;SDS011;63269;53.330;-6.288;2023-07-16T01:19:41;4.53;;;1.90;;
74749;SDS011;63269;53.330;-6.288;2023-07-16T01:30:21;5.57;;;1.92;;
74749;SDS011;63269;53.330;-6.288;2023-07-16T01:32:48;7.22;;;2.15;;
74749;SDS011;63269;53.330;-6.288;2023-07-16T01:35:14;6.13;;;2.38;;
74749;SDS011;63269;53.330;-6.288;2023-07-16T01:37:41;3.90;;;2.03;;
74749;SDS011;63269;53.330;-6.288;2023-07-16T01:40:07;5.40;;;2.00;;
74749;SDS011;63269;53.330;-6.288;2023-07-16T01:42:34;5.32;;;1.88;;
74749;SDS011;63269;53.330;-6.288;2023-07-16T01:45:00;5.63;;;2.58;;
74749;SDS011;63269;53.330;-6.288;2023-07-16T01:49:53;5.22;;;1.90;;
74749;SDS011;63269;53.330;-6.288;2023-07-16T01:52:19;6.38;;;2.58;;
74749;SDS011;63269;53.330;-6.288;2023-07-16T01:54:45;6.53;;;2.28;;
74749;SDS011;63269;53.330;-6.288;2023-07-16T01:57:10;4.38;;;1.90;;
74749;SDS011;63269;53.330;-6.288;2023-07-16T01:59:36;5.60;;;2.05;;
74749;SDS011;63269;53.330;-6.288;2023-07-16T02:02:01;9.95;;;2.85;;
74749;SDS011;63269;53.330;-6.288;2023-07-16T02:04:27;5.63;;;1.92;;
74749;SDS011;63269;53.330;-6.288;2023-07-16T02:06:52;4.43;;;1.77;;
74749;SDS011;63269;53.330;-6.288;2023-07-16T02:09:18;4.60;;;2.53;;
74749;SDS011;63269;53.330;-6.288;2023-07-16T02:11:43;6.82;;;2.28;;
74749;SDS011;63269;53.330;-6.288;2023-07-16T02:14:09;5.32;;;1.80;;
74749;SDS011;63269;53.330;-6.288;2023-07-16T02:16:34;6.40;;;1.92;;
74749;SDS011;63269;53.330;-6.288;2023-07-16T02:18:59;7.68;;;1.88;;
74749;SDS011;63269;53.330;-6.288;2023-07-16T02:21:25;3.95;;;1.63;;
74749;SDS011;63269;53.330;-6.288;2023-07-16T02:23:50;4.50;;;1.73;;
74749;SDS011;63269;53.330;-6.288;2023-07-16T02:26:16;4.22;;;1.70;;
74749;SDS011;63269;53.330;-6.288;2023-07-16T02:28:41;4.78;;;2.08;;
74749;SDS011;63269;53.330;-6.288;2023-07-16T02:31:06;7.22;;;2.25;;
74749;SDS011;63269;53.330;-6.288;2023-07-16T02:33:32;5.60;;;2.08;;
74749;SDS011;63269;53.330;-6.288;2023-07-16T02:35:57;6.35;;;2.30;;
74749;SDS011;63269;53.330;-6.288;2023-07-16T02:38:23;5.22;;;2.25;;
74749;SDS011;63269;53.330;-6.288;2023-07-16T02:40:48;4.97;;;1.88;;
74749;SDS011;63269;53.330;-6.288;2023-07-16T02:43:14;5.85;;;2.42;;
74749;SDS011;63269;53.330;-6.288;2023-07-16T02:45:40;4.05;;;2.00;;
74749;SDS011;63269;53.330;-6.288;2023-07-16T02:48:06;6.75;;;1.85;;
74749;SDS011;63269;53.330;-6.288;2023-07-16T02:50:35;5.53;;;2.03;;
74749;SDS011;63269;53.330;-6.288;2023-07-16T02:53:03;6.32;;;2.00;;
74749;SDS011;63269;53.330;-6.288;2023-07-16T02:55:30;6.75;;;1.77;;
74749;SDS011;63269;53.330;-6.288;2023-07-16T02:57:55;5.43;;;2.15;;
74749;SDS011;63269;53.330;-6.288;2023-07-16T03:00:21;7.00;;;1.73;;
74749;SDS011;63269;53.330;-6.288;2023-07-16T03:02:47;4.90;;;1.88;;
74749;SDS011;63269;53.330;-6.288;2023-07-16T03:05:14;6.32;;;1.95;;
74749;SDS011;63269;53.330;-6.288;2023-07-16T03:07:39;5.45;;;2.15;;
74749;SDS011;63269;53.330;-6.288;2023-07-16T03:10:04;4.68;;;1.63;;
74749;SDS011;63269;53.330;-6.288;2023-07-16T03:12:30;3.70;;;1.42;;
74749;SDS011;63269;53.330;-6.288;2023-07-16T03:14:55;3.63;;;1.65;;
74749;SDS011;63269;53.330;-6.288;2023-07-16T03:17:21;2.78;;;1.40;;
74749;SDS011;63269;53.330;-6.288;2023-07-16T03:19:47;4.70;;;1.40;;
74749;SDS011;63269;53.330;-6.288;2023-07-16T03:22:13;3.05;;;1.88;;
74749;SDS011;63269;53.330;-6.288;2023-07-16T03:24:38;4.15;;;1.80;;
74749;SDS011;63269;53.330;-6.288;2023-07-16T03:27:04;3.80;;;1.40;;
74749;SDS011;63269;53.330;-6.288;2023-07-16T03:29:29;6.18;;;2.28;;
74749;SDS011;63269;53.330;-6.288;2023-07-16T03:31:55;4.28;;;1.70;;
74749;SDS011;63269;53.330;-6.288;2023-07-16T03:34:20;4.82;;;1.98;;
74749;SDS011;63269;53.330;-6.288;2023-07-16T03:36:46;5.50;;;1.77;;
74749;SDS011;63269;53.330;-6.288;2023-07-16T03:39:12;3.78;;;1.85;;
74749;SDS011;63269;53.330;-6.288;2023-07-16T03:41:37;4.55;;;1.70;;
74749;SDS011;63269;53.330;-6.288;2023-07-16T03:44:02;4.13;;;1.63;;
74749;SDS011;63269;53.330;-6.288;2023-07-16T03:46:28;3.72;;;1.45;;
74749;SDS011;63269;53.330;-6.288;2023-07-16T03:48:53;5.63;;;2.55;;
74749;SDS011;63269;53.330;-6.288;2023-07-16T03:51:19;2.72;;;1.27;;
74749;SDS011;63269;53.330;-6.288;2023-07-16T03:53:44;4.78;;;1.50;;
74749;SDS011;63269;53.330;-6.288;2023-07-16T03:56:10;7.85;;;2.20;;
74749;SDS011;63269;53.330;-6.288;2023-07-16T03:58:35;3.88;;;1.48;;
74749;SDS011;63269;53.330;-6.288;2023-07-16T04:01:01;4.03;;;1.45;;
74749;SDS011;63269;53.330;-6.288;2023-07-16T04:03:26;5.28;;;2.42;;
74749;SDS011;63269;53.330;-6.288;2023-07-16T04:05:52;4.55;;;1.70;;
74749;SDS011;63269;53.330;-6.288;2023-07-16T04:08:25;6.22;;;2.20;;
74749;SDS011;63269;53.330;-6.288;2023-07-16T04:10:50;4.35;;;1.98;;
74749;SDS011;63269;53.330;-6.288;2023-07-16T04:13:16;3.03;;;1.60;;
74749;SDS011;63269;53.330;-6.288;2023-07-16T04:15:41;4.07;;;1.48;;
74749;SDS011;63269;53.330;-6.288;2023-07-16T04:18:06;4.47;;;2.08;;
74749;SDS011;63269;53.330;-6.288;2023-07-16T04:20:32;4.57;;;1.50;;
74749;SDS011;63269;53.330;-6.288;2023-07-16T04:22:58;3.53;;;1.58;;
74749;SDS011;63269;53.330;-6.288;2023-07-16T04:25:24;4.78;;;1.58;;
74749;SDS011;63269;53.330;-6.288;2023-07-16T04:27:49;1.45;;;1.15;;
74749;SDS011;63269;53.330;-6.288;2023-07-16T04:30:15;2.33;;;1.30;;
74749;SDS011;63269;53.330;-6.288;2023-07-16T04:32:40;3.25;;;1.33;;
74749;SDS011;63269;53.330;-6.288;2023-07-16T04:35:05;2.95;;;1.65;;
74749;SDS011;63269;53.330;-6.288;2023-07-16T04:37:32;3.97;;;1.50;;
74749;SDS011;63269;53.330;-6.288;2023-07-16T04:39:57;3.85;;;2.00;;
74749;SDS011;63269;53.330;-6.288;2023-07-16T04:42:22;3.47;;;1.65;;
74749;SDS011;63269;53.330;-6.288;2023-07-16T04:44:48;3.38;;;1.02;;
74749;SDS011;63269;53.330;-6.288;2023-07-16T04:47:13;3.03;;;1.45;;
74749;SDS011;63269;53.330;-6.288;2023-07-16T04:49:39;4.18;;;1.42;;
74749;SDS011;63269;53.330;-6.288;2023-07-16T04:52:04;2.92;;;1.23;;
74749;SDS011;63269;53.330;-6.288;2023-07-16T04:54:34;3.67;;;1.23;;
74749;SDS011;63269;53.330;-6.288;2023-07-16T04:57:00;2.55;;;1.30;;
74749;SDS011;63269;53.330;-6.288;2023-07-16T04:59:26;5.95;;;1.92;;
74749;SDS011;63269;53.330;-6.288;2023-07-16T05:01:51;3.03;;;1.08;;
74749;SDS011;63269;53.330;-6.288;2023-07-16T05:04:17;2.75;;;0.95;;
74749;SDS011;63269;53.330;-6.288;2023-07-16T05:06:42;2.17;;;1.30;;
74749;SDS011;63269;53.330;-6.288;2023-07-16T05:09:07;2.40;;;1.35;;
74749;SDS011;63269;53.330;-6.288;2023-07-16T05:11:33;3.83;;;1.20;;
74749;SDS011;63269;53.330;-6.288;2023-07-16T05:13:58;2.67;;;1.10;;
74749;SDS011;63269;53.330;-6.288;2023-07-16T05:16:23;3.47;;;0.95;;
74749;SDS011;63269;53.330;-6.288;2023-07-16T05:18:49;1.85;;;1.20;;
74749;SDS011;63269;53.330;-6.288;2023-07-16T05:21:14;2.58;;;1.30;;
74749;SDS011;63269;53.330;-6.288;2023-07-16T05:23:39;2.95;;;1.23;;
74749;SDS011;63269;53.330;-6.288;2023-07-16T05:26:05;3.25;;;1.20;;
74749;SDS011;63269;53.330;-6.288;2023-07-16T05:28:30;4.38;;;1.25;;
74749;SDS011;63269;53.330;-6.288;2023-07-16T05:31:02;2.38;;;0.82;;
74749;SDS011;63269;53.330;-6.288;2023-07-16T05:33:28;4.10;;;1.02;;
74749;SDS011;63269;53.330;-6.288;2023-07-16T05:35:53;3.53;;;1.58;;
74749;SDS011;63269;53.330;-6.288;2023-07-16T05:38:19;4.82;;;1.45;;
74749;SDS011;63269;53.330;-6.288;2023-07-16T05:40:44;4.28;;;1.30;;
74749;SDS011;63269;53.330;-6.288;2023-07-16T05:43:10;2.75;;;0.85;;
74749;SDS011;63269;53.330;-6.288;2023-07-16T05:45:36;5.40;;;1.83;;
74749;SDS011;63269;53.330;-6.288;2023-07-16T05:48:01;1.98;;;1.00;;
74749;SDS011;63269;53.330;-6.288;2023-07-16T05:50:28;2.55;;;0.95;;
74749;SDS011;63269;53.330;-6.288;2023-07-16T05:52:54;2.20;;;0.90;;
74749;SDS011;63269;53.330;-6.288;2023-07-16T05:55:19;3.80;;;1.10;;
74749;SDS011;63269;53.330;-6.288;2023-07-16T05:57:45;3.70;;;1.10;;
74749;SDS011;63269;53.330;-6.288;2023-07-16T06:00:11;2.72;;;1.55;;
74749;SDS011;63269;53.330;-6.288;2023-07-16T06:02:38;2.95;;;1.35;;
74749;SDS011;63269;53.330;-6.288;2023-07-16T06:05:04;4.35;;;1.40;;
74749;SDS011;63269;53.330;-6.288;2023-07-16T06:07:30;2.97;;;1.00;;
74749;SDS011;63269;53.330;-6.288;2023-07-16T06:09:56;4.05;;;1.88;;
74749;SDS011;63269;53.330;-6.288;2023-07-16T06:12:22;3.53;;;1.30;;
74749;SDS011;63269;53.330;-6.288;2023-07-16T06:14:47;3.17;;;1.05;;
74749;SDS011;63269;53.330;-6.288;2023-07-16T06:17:13;3.75;;;1.20;;
74749;SDS011;63269;53.330;-6.288;2023-07-16T06:19:38;3.17;;;1.10;;
74749;SDS011;63269;53.330;-6.288;2023-07-16T06:22:03;2.30;;;0.90;;
74749;SDS011;63269;53.330;-6.288;2023-07-16T06:24:29;5.20;;;1.55;;
74749;SDS011;63269;53.330;-6.288;2023-07-16T06:26:54;3.85;;;1.40;;
74749;SDS011;63269;53.330;-6.288;2023-07-16T06:29:20;2.65;;;1.20;;
74749;SDS011;63269;53.330;-6.288;2023-07-16T06:31:55;3.83;;;1.27;;
74749;SDS011;63269;53.330;-6.288;2023-07-16T06:34:22;3.58;;;1.40;;
74749;SDS011;63269;53.330;-6.288;2023-07-16T06:36:48;3.17;;;1.25;;
74749;SDS011;63269;53.330;-6.288;2023-07-16T06:39:13;2.97;;;1.42;;
74749;SDS011;63269;53.330;-6.288;2023-07-16T06:41:39;2.35;;;1.10;;
74749;SDS011;63269;53.330;-6.288;2023-07-16T06:44:04;2.67;;;0.90;;
74749;SDS011;63269;53.330;-6.288;2023-07-16T06:46:29;2.88;;;1.05;;
74749;SDS011;63269;53.330;-6.288;2023-07-16T06:48:55;2.70;;;0.90;;
74749;SDS011;63269;53.330;-6.288;2023-07-16T06:51:20;3.08;;;0.98;;
74749;SDS011;63269;53.330;-6.288;2023-07-16T06:53:45;2.75;;;1.20;;
74749;SDS011;63269;53.330;-6.288;2023-07-16T06:56:11;2.58;;;1.00;;
74749;SDS011;63269;53.330;-6.288;2023-07-16T06:58:36;3.55;;;1.10;;
74749;SDS011;63269;53.330;-6.288;2023-07-16T07:01:02;5.30;;;1.63;;
74749;SDS011;63269;53.330;-6.288;2023-07-16T07:03:27;3.90;;;1.20;;
74749;SDS011;63269;53.330;-6.288;2023-07-16T07:05:53;3.80;;;1.27;;
74749;SDS011;63269;53.330;-6.288;2023-07-16T07:08:18;2.92;;;1.08;;
74749;SDS011;63269;53.330;-6.288;2023-07-16T07:10:43;3.30;;;1.17;;
74749;SDS011;63269;53.330;-6.288;2023-07-16T07:13:09;3.30;;;1.10;;
74749;SDS011;63269;53.330;-6.288;2023-07-16T07:15:34;2.72;;;1.10;;
74749;SDS011;63269;53.330;-6.288;2023-07-16T07:18:00;2.13;;;0.93;;
74749;SDS011;63269;53.330;-6.288;2023-07-16T07:20:25;2.15;;;1.08;;
74749;SDS011;63269;53.330;-6.288;2023-07-16T07:22:51;4.88;;;1.33;;
74749;SDS011;63269;53.330;-6.288;2023-07-16T07:25:16;3.10;;;1.33;;
74749;SDS011;63269;53.330;-6.288;2023-07-16T07:27:41;3.22;;;1.17;;
74749;SDS011;63269;53.330;-6.288;2023-07-16T07:30:07;4.85;;;1.27;;
74749;SDS011;63269;53.330;-6.288;2023-07-16T07:32:33;4.10;;;1.25;;
74749;SDS011;63269;53.330;-6.288;2023-07-16T07:35:02;2.67;;;1.23;;
74749;SDS011;63269;53.330;-6.288;2023-07-16T07:37:27;4.05;;;1.05;;
74749;SDS011;63269;53.330;-6.288;2023-07-16T07:39:53;4.65;;;1.17;;
74749;SDS011;63269;53.330;-6.288;2023-07-16T07:42:18;3.40;;;1.45;;
74749;SDS011;63269;53.330;-6.288;2023-07-16T07:44:44;2.97;;;0.95;;
74749;SDS011;63269;53.330;-6.288;2023-07-16T07:47:09;2.90;;;1.38;;
74749;SDS011;63269;53.330;-6.288;2023-07-16T07:49:35;8.60;;;1.75;;
74749;SDS011;63269;53.330;-6.288;2023-07-16T07:52:00;4.40;;;1.42;;
74749;SDS011;63269;53.330;-6.288;2023-07-16T07:54:26;4.13;;;1.08;;
74749;SDS011;63269;53.330;-6.288;2023-07-16T07:56:51;4.28;;;1.40;;
74749;SDS011;63269;53.330;-6.288;2023-07-16T07:59:16;3.67;;;1.40;;
74749;SDS011;63269;53.330;-6.288;2023-07-16T08:01:42;2.85;;;1.08;;
74749;SDS011;63269;53.330;-6.288;2023-07-16T08:04:07;2.13;;;1.10;;
74749;SDS011;63269;53.330;-6.288;2023-07-16T08:06:33;3.65;;;1.15;;
74749;SDS011;63269;53.330;-6.288;2023-07-16T08:08:58;2.75;;;1.30;;
74749;SDS011;63269;53.330;-6.288;2023-07-16T08:11:24;6.15;;;1.50;;
74749;SDS011;63269;53.330;-6.288;2023-07-16T08:13:49;3.42;;;1.35;;
74749;SDS011;63269;53.330;-6.288;2023-07-16T08:16:15;4.03;;;1.00;;
74749;SDS011;63269;53.330;-6.288;2023-07-16T08:18:40;3.10;;;1.00;;
74749;SDS011;63269;53.330;-6.288;2023-07-16T08:21:05;5.03;;;1.80;;
74749;SDS011;63269;53.330;-6.288;2023-07-16T08:23:31;3.53;;;1.38;;
74749;SDS011;63269;53.330;-6.288;2023-07-16T08:25:57;5.45;;;1.27;;
74749;SDS011;63269;53.330;-6.288;2023-07-16T08:28:22;4.32;;;1.25;;
74749;SDS011;63269;53.330;-6.288;2023-07-16T08:30:48;5.28;;;1.35;;
74749;SDS011;63269;53.330;-6.288;2023-07-16T08:33:14;5.65;;;1.85;;
74749;SDS011;63269;53.330;-6.288;2023-07-16T08:35:40;5.57;;;1.45;;
74749;SDS011;63269;53.330;-6.288;2023-07-16T08:38:06;3.13;;;1.42;;
74749;SDS011;63269;53.330;-6.288;2023-07-16T08:40:34;2.60;;;1.20;;
74749;SDS011;63269;53.330;-6.288;2023-07-16T08:43:03;4.35;;;1.65;;
74749;SDS011;63269;53.330;-6.288;2023-07-16T08:45:31;5.55;;;1.48;;
74749;SDS011;63269;53.330;-6.288;2023-07-16T08:48:04;5.63;;;1.20;;
74749;SDS011;63269;53.330;-6.288;2023-07-16T08:50:30;4.65;;;1.20;;
74749;SDS011;63269;53.330;-6.288;2023-07-16T08:52:56;2.92;;;1.92;;
74749;SDS011;63269;53.330;-6.288;2023-07-16T08:55:22;2.70;;;1.30;;
74749;SDS011;63269;53.330;-6.288;2023-07-16T08:57:48;4.05;;;1.27;;
74749;SDS011;63269;53.330;-6.288;2023-07-16T09:00:16;3.08;;;1.23;;
74749;SDS011;63269;53.330;-6.288;2023-07-16T09:02:42;5.03;;;1.40;;
74749;SDS011;63269;53.330;-6.288;2023-07-16T09:05:08;3.13;;;1.45;;
74749;SDS011;63269;53.330;-6.288;2023-07-16T09:07:35;6.65;;;1.80;;
74749;SDS011;63269;53.330;-6.288;2023-07-16T09:10:02;5.20;;;1.55;;
74749;SDS011;63269;53.330;-6.288;2023-07-16T09:12:28;4.28;;;1.42;;
74749;SDS011;63269;53.330;-6.288;2023-07-16T09:14:55;6.75;;;1.70;;
74749;SDS011;63269;53.330;-6.288;2023-07-16T09:17:24;4.57;;;1.50;;
74749;SDS011;63269;53.330;-6.288;2023-07-16T09:19:50;3.72;;;1.05;;
74749;SDS011;63269;53.330;-6.288;2023-07-16T09:22:17;2.83;;;1.00;;
74749;SDS011;63269;53.330;-6.288;2023-07-16T09:24:47;5.32;;;1.25;;
74749;SDS011;63269;53.330;-6.288;2023-07-16T09:27:12;2.92;;;1.23;;
74749;SDS011;63269;53.330;-6.288;2023-07-16T09:29:39;6.28;;;1.80;;
74749;SDS011;63269;53.330;-6.288;2023-07-16T09:32:04;4.60;;;1.30;;
74749;SDS011;63269;53.330;-6.288;2023-07-16T09:34:30;2.70;;;1.23;;
74749;SDS011;63269;53.330;-6.288;2023-07-16T09:36:59;3.35;;;1.10;;
74749;SDS011;63269;53.330;-6.288;2023-07-16T09:39:26;5.47;;;1.10;;
74749;SDS011;63269;53.330;-6.288;2023-07-16T09:41:52;2.92;;;1.20;;
74749;SDS011;63269;53.330;-6.288;2023-07-16T09:44:18;4.95;;;1.20;;
74749;SDS011;63269;53.330;-6.288;2023-07-16T09:46:44;3.22;;;1.40;;
74749;SDS011;63269;53.330;-6.288;2023-07-16T09:49:11;4.68;;;1.20;;
74749;SDS011;63269;53.330;-6.288;2023-07-16T09:51:37;3.55;;;1.27;;
74749;SDS011;63269;53.330;-6.288;2023-07-16T09:54:04;3.58;;;1.60;;
74749;SDS011;63269;53.330;-6.288;2023-07-16T09:56:34;4.90;;;1.80;;
74749;SDS011;63269;53.330;-6.288;2023-07-16T09:59:02;4.05;;;1.35;;
74749;SDS011;63269;53.330;-6.288;2023-07-16T10:01:32;3.53;;;1.30;;
74749;SDS011;63269;53.330;-6.288;2023-07-16T10:04:09;2.63;;;1.15;;
74749;SDS011;63269;53.330;-6.288;2023-07-16T10:06:48;2.20;;;1.05;;
74749;SDS011;63269;53.330;-6.288;2023-07-16T10:09:50;4.35;;;1.58;;
74749;SDS011;63269;53.330;-6.288;2023-07-16T10:12:18;2.88;;;1.20;;
74749;SDS011;63269;53.330;-6.288;2023-07-16T10:14:49;4.22;;;1.30;;
74749;SDS011;63269;53.330;-6.288;2023-07-16T10:17:25;2.05;;;1.40;;
74749;SDS011;63269;53.330;-6.288;2023-07-16T10:20:07;2.28;;;1.15;;
74749;SDS011;63269;53.330;-6.288;2023-07-16T10:22:40;4.63;;;1.60;;
74749;SDS011;63269;53.330;-6.288;2023-07-16T10:27:42;4.25;;;1.25;;
74749;SDS011;63269;53.330;-6.288;2023-07-16T10:30:08;3.33;;;1.70;;
74749;SDS011;63269;53.330;-6.288;2023-07-16T10:32:33;4.85;;;1.63;;
74749;SDS011;63269;53.330;-6.288;2023-07-16T10:34:59;4.50;;;1.77;;
74749;SDS011;63269;53.330;-6.288;2023-07-16T10:37:25;7.25;;;1.73;;
74749;SDS011;63269;53.330;-6.288;2023-07-16T10:39:52;4.72;;;1.70;;
74749;SDS011;63269;53.330;-6.288;2023-07-16T10:42:19;6.70;;;1.75;;
74749;SDS011;63269;53.330;-6.288;2023-07-16T10:44:49;4.00;;;2.47;;
74749;SDS011;63269;53.330;-6.288;2023-07-16T10:47:19;4.32;;;2.10;;
74749;SDS011;63269;53.330;-6.288;2023-07-16T10:49:47;4.93;;;1.95;;
74749;SDS011;63269;53.330;-6.288;2023-07-16T10:52:12;4.47;;;2.05;;
74749;SDS011;63269;53.330;-6.288;2023-07-16T10:54:39;4.40;;;2.10;;
74749;SDS011;63269;53.330;-6.288;2023-07-16T10:57:05;3.50;;;1.80;;
74749;SDS011;63269;53.330;-6.288;2023-07-16T10:59:31;4.10;;;2.03;;
74749;SDS011;63269;53.330;-6.288;2023-07-16T11:01:57;4.53;;;1.90;;
74749;SDS011;63269;53.330;-6.288;2023-07-16T11:04:23;2.92;;;1.77;;
74749;SDS011;63269;53.330;-6.288;2023-07-16T11:06:51;6.63;;;2.05;;
74749;SDS011;63269;53.330;-6.288;2023-07-16T11:09:17;4.63;;;1.70;;
74749;SDS011;63269;53.330;-6.288;2023-07-16T11:11:42;11.25;;;2.13;;
74749;SDS011;63269;53.330;-6.288;2023-07-16T11:14:08;9.35;;;2.05;;
74749;SDS011;63269;53.330;-6.288;2023-07-16T11:16:34;5.60;;;1.80;;
74749;SDS011;63269;53.330;-6.288;2023-07-16T11:19:01;7.50;;;2.15;;
74749;SDS011;63269;53.330;-6.288;2023-07-16T11:21:30;9.15;;;2.00;;
74749;SDS011;63269;53.330;-6.288;2023-07-16T11:24:12;8.85;;;2.22;;
74749;SDS011;63269;53.330;-6.288;2023-07-16T11:26:39;6.55;;;2.20;;
74749;SDS011;63269;53.330;-6.288;2023-07-16T11:29:14;6.25;;;1.98;;
74749;SDS011;63269;53.330;-6.288;2023-07-16T11:31:40;11.52;;;2.38;;
74749;SDS011;63269;53.330;-6.288;2023-07-16T11:34:14;5.50;;;2.28;;
74749;SDS011;63269;53.330;-6.288;2023-07-16T11:36:40;8.10;;;2.25;;
74749;SDS011;63269;53.330;-6.288;2023-07-16T11:39:05;7.00;;;2.30;;
74749;SDS011;63269;53.330;-6.288;2023-07-16T11:41:30;10.35;;;3.30;;
74749;SDS011;63269;53.330;-6.288;2023-07-16T11:44:00;12.57;;;2.00;;
74749;SDS011;63269;53.330;-6.288;2023-07-16T11:46:30;11.05;;;2.70;;
74749;SDS011;63269;53.330;-6.288;2023-07-16T11:48:57;8.32;;;2.90;;
74749;SDS011;63269;53.330;-6.288;2023-07-16T11:51:22;5.75;;;2.05;;
74749;SDS011;63269;53.330;-6.288;2023-07-16T11:53:47;10.07;;;2.30;;
74749;SDS011;63269;53.330;-6.288;2023-07-16T11:56:13;6.57;;;2.72;;
74749;SDS011;63269;53.330;-6.288;2023-07-16T11:58:38;10.07;;;3.22;;
74749;SDS011;63269;53.330;-6.288;2023-07-16T12:01:04;12.80;;;2.40;;
74749;SDS011;63269;53.330;-6.288;2023-07-16T12:03:29;11.77;;;2.95;;
74749;SDS011;63269;53.330;-6.288;2023-07-16T12:05:55;10.70;;;2.75;;
74749;SDS011;63269;53.330;-6.288;2023-07-16T12:08:20;13.27;;;3.30;;
74749;SDS011;63269;53.330;-6.288;2023-07-16T12:10:45;7.47;;;2.78;;
74749;SDS011;63269;53.330;-6.288;2023-07-16T12:13:11;11.63;;;3.42;;
74749;SDS011;63269;53.330;-6.288;2023-07-16T12:15:36;10.65;;;3.25;;
74749;SDS011;63269;53.330;-6.288;2023-07-16T12:18:02;7.55;;;2.50;;
74749;SDS011;63269;53.330;-6.288;2023-07-16T12:20:28;9.13;;;3.45;;
74749;SDS011;63269;53.330;-6.288;2023-07-16T12:22:53;8.70;;;2.50;;
74749;SDS011;63269;53.330;-6.288;2023-07-16T12:25:19;10.52;;;2.85;;
74749;SDS011;63269;53.330;-6.288;2023-07-16T12:27:45;9.00;;;2.75;;
74749;SDS011;63269;53.330;-6.288;2023-07-16T12:30:10;6.25;;;3.17;;
74749;SDS011;63269;53.330;-6.288;2023-07-16T12:32:36;7.72;;;2.70;;
74749;SDS011;63269;53.330;-6.288;2023-07-16T12:35:02;7.85;;;2.80;;
74749;SDS011;63269;53.330;-6.288;2023-07-16T12:37:29;4.53;;;2.35;;
74749;SDS011;63269;53.330;-6.288;2023-07-16T12:39:55;6.22;;;2.30;;
74749;SDS011;63269;53.330;-6.288;2023-07-16T12:42:20;6.47;;;2.47;;
74749;SDS011;63269;53.330;-6.288;2023-07-16T12:44:45;7.32;;;3.45;;
74749;SDS011;63269;53.330;-6.288;2023-07-16T12:47:11;4.25;;;2.00;;
74749;SDS011;63269;53.330;-6.288;2023-07-16T12:49:36;5.40;;;2.17;;
74749;SDS011;63269;53.330;-6.288;2023-07-16T12:52:02;7.03;;;2.50;;
74749;SDS011;63269;53.330;-6.288;2023-07-16T12:54:28;5.05;;;1.95;;
74749;SDS011;63269;53.330;-6.288;2023-07-16T12:56:54;4.97;;;2.20;;
74749;SDS011;63269;53.330;-6.288;2023-07-16T12:59:20;4.72;;;2.03;;
74749;SDS011;63269;53.330;-6.288;2023-07-16T13:01:45;5.65;;;1.92;;
74749;SDS011;63269;53.330;-6.288;2023-07-16T13:04:11;6.63;;;2.08;;
74749;SDS011;63269;53.330;-6.288;2023-07-16T13:06:36;5.28;;;2.17;;
74749;SDS011;63269;53.330;-6.288;2023-07-16T13:09:02;5.38;;;1.88;;
74749;SDS011;63269;53.330;-6.288;2023-07-16T13:11:28;3.40;;;1.65;;
74749;SDS011;63269;53.330;-6.288;2023-07-16T13:13:54;5.55;;;2.08;;
74749;SDS011;63269;53.330;-6.288;2023-07-16T13:16:19;5.57;;;1.80;;
74749;SDS011;63269;53.330;-6.288;2023-07-16T13:18:44;3.78;;;1.90;;
74749;SDS011;63269;53.330;-6.288;2023-07-16T13:21:10;6.88;;;1.75;;
74749;SDS011;63269;53.330;-6.288;2023-07-16T13:23:35;3.83;;;2.05;;
74749;SDS011;63269;53.330;-6.288;2023-07-16T13:26:01;3.03;;;1.30;;
74749;SDS011;63269;53.330;-6.288;2023-07-16T13:28:26;6.82;;;1.80;;
74749;SDS011;63269;53.330;-6.288;2023-07-16T13:30:53;4.00;;;2.25;;
74749;SDS011;63269;53.330;-6.288;2023-07-16T13:33:19;4.57;;;1.80;;
74749;SDS011;63269;53.330;-6.288;2023-07-16T13:35:44;5.80;;;1.98;;
74749;SDS011;63269;53.330;-6.288;2023-07-16T13:38:10;3.97;;;1.85;;
74749;SDS011;63269;53.330;-6.288;2023-07-16T13:40:35;5.00;;;1.67;;
74749;SDS011;63269;53.330;-6.288;2023-07-16T13:43:00;4.40;;;1.50;;
74749;SDS011;63269;53.330;-6.288;2023-07-16T13:45:26;3.65;;;1.52;;
74749;SDS011;63269;53.330;-6.288;2023-07-16T13:47:51;4.88;;;1.70;;
74749;SDS011;63269;53.330;-6.288;2023-07-16T13:50:17;4.70;;;1.70;;
74749;SDS011;63269;53.330;-6.288;2023-07-16T13:52:44;5.45;;;1.50;;
74749;SDS011;63269;53.330;-6.288;2023-07-16T13:55:09;2.85;;;1.75;;
74749;SDS011;63269;53.330;-6.288;2023-07-16T13:57:35;7.22;;;2.38;;
74749;SDS011;63269;53.330;-6.288;2023-07-16T14:00:00;3.33;;;1.98;;
74749;SDS011;63269;53.330;-6.288;2023-07-16T14:02:26;2.97;;;1.75;;
74749;SDS011;63269;53.330;-6.288;2023-07-16T14:04:51;5.10;;;2.20;;
74749;SDS011;63269;53.330;-6.288;2023-07-16T14:07:16;3.25;;;1.45;;
74749;SDS011;63269;53.330;-6.288;2023-07-16T14:09:42;3.45;;;1.75;;
74749;SDS011;63269;53.330;-6.288;2023-07-16T14:12:07;2.35;;;1.60;;
74749;SDS011;63269;53.330;-6.288;2023-07-16T14:14:33;4.78;;;1.55;;
74749;SDS011;63269;53.330;-6.288;2023-07-16T14:16:58;3.00;;;1.40;;
74749;SDS011;63269;53.330;-6.288;2023-07-16T14:19:24;3.03;;;1.50;;
74749;SDS011;63269;53.330;-6.288;2023-07-16T14:21:49;3.65;;;1.67;;
74749;SDS011;63269;53.330;-6.288;2023-07-16T14:24:14;6.05;;;1.77;;
74749;SDS011;63269;53.330;-6.288;2023-07-16T14:26:40;3.90;;;1.45;;
74749;SDS011;63269;53.330;-6.288;2023-07-16T14:29:05;3.13;;;1.73;;
74749;SDS011;63269;53.330;-6.288;2023-07-16T14:31:31;4.88;;;1.60;;
74749;SDS011;63269;53.330;-6.288;2023-07-16T14:33:56;3.08;;;1.40;;
74749;SDS011;63269;53.330;-6.288;2023-07-16T14:36:22;3.58;;;1.30;;
74749;SDS011;63269;53.330;-6.288;2023-07-16T14:38:48;4.43;;;1.42;;
74749;SDS011;63269;53.330;-6.288;2023-07-16T14:41:14;6.90;;;1.80;;